createdAt,value
2023-02-06T00:01:58.093Z,-1.13
2023-02-06T00:07:00.820Z,-1.00
2023-02-06T00:12:03.134Z,-0.92
2023-02-06T00:17:05.472Z,-0.85
2023-02-06T00:22:07.756Z,-0.78
2023-02-06T00:27:10.126Z,-0.94
2023-02-06T00:32:12.507Z,-0.97
2023-02-06T00:37:17.411Z,-0.84
2023-02-06T00:42:20.090Z,-0.93
2023-02-06T00:47:22.424Z,-1.09
2023-02-06T00:52:24.746Z,-1.21
2023-02-06T00:57:27.144Z,-1.09
2023-02-06T01:02:29.598Z,-1.01
2023-02-06T01:07:31.985Z,-1.21
2023-02-06T01:12:34.373Z,-1.20
2023-02-06T01:17:36.789Z,-1.17
2023-02-06T01:22:39.080Z,-1.18
2023-02-06T01:27:41.531Z,-1.10
2023-02-06T01:32:43.953Z,-1.09
2023-02-06T01:37:46.301Z,-1.15
2023-02-06T01:42:48.830Z,-1.23
2023-02-06T01:47:51.241Z,-1.26
2023-02-06T01:52:53.557Z,-1.24
2023-02-06T01:57:55.867Z,-1.44
2023-02-06T02:02:58.133Z,-1.29
2023-02-06T02:08:02.015Z,-1.27
2023-02-06T02:13:04.294Z,-1.27
2023-02-06T02:18:06.871Z,-1.19
2023-02-06T02:23:09.219Z,-1.15
2023-02-06T02:28:11.564Z,-1.32
2023-02-06T02:33:13.879Z,-1.35
2023-02-06T02:38:16.134Z,-1.44
2023-02-06T02:43:18.452Z,-1.61
2023-02-06T02:48:20.756Z,-1.55
2023-02-06T02:53:23.022Z,-1.64
2023-02-06T02:58:25.315Z,-1.69
2023-02-06T03:03:28.843Z,-1.70
2023-02-06T03:08:31.127Z,-1.48
2023-02-06T03:13:33.526Z,-1.39
2023-02-06T03:18:35.952Z,-1.79
2023-02-06T03:23:38.329Z,-1.76
2023-02-06T03:28:40.611Z,-1.78
2023-02-06T03:33:42.911Z,-1.61
2023-02-06T03:38:45.242Z,-1.51
2023-02-06T03:43:47.552Z,-1.80
2023-02-06T03:48:49.849Z,-1.91
2023-02-06T03:53:52.141Z,-1.95
2023-02-06T03:58:54.527Z,-2.04
2023-02-06T04:03:56.827Z,-2.20
2023-02-06T04:08:59.131Z,-2.45
2023-02-06T04:14:01.422Z,-2.58
2023-02-06T04:19:03.716Z,-2.67
2023-02-06T04:24:05.985Z,-2.88
2023-02-06T04:29:08.351Z,-2.82
2023-02-06T04:34:10.696Z,-2.87
2023-02-06T04:39:13.174Z,-3.02
2023-02-06T04:44:15.505Z,-2.95
2023-02-06T04:49:17.828Z,-3.00
2023-02-06T04:54:20.201Z,-3.01
2023-02-06T04:59:22.625Z,-3.12
2023-02-06T05:04:24.997Z,-3.20
2023-02-06T05:09:27.319Z,-3.21
2023-02-06T05:14:29.711Z,-3.18
2023-02-06T05:19:32.007Z,-3.33
2023-02-06T05:24:34.463Z,-3.39
2023-02-06T05:29:36.871Z,-3.31
2023-02-06T05:34:39.420Z,-3.34
2023-02-06T05:39:42.067Z,-3.36
2023-02-06T05:44:44.483Z,-3.39
2023-02-06T05:49:48.197Z,-3.40
2023-02-06T05:54:50.557Z,-3.44
2023-02-06T05:59:52.930Z,-3.45
2023-02-06T06:04:55.258Z,-3.44
2023-02-06T06:09:57.548Z,-3.63
2023-02-06T06:14:59.839Z,-3.74
2023-02-06T06:20:02.201Z,-3.80
2023-02-06T06:25:06.617Z,-3.51
2023-02-06T06:30:08.903Z,-3.33
2023-02-06T06:35:11.256Z,-3.43
2023-02-06T06:40:33.856Z,-3.52
2023-02-06T06:45:36.416Z,-3.23
2023-02-06T06:50:38.831Z,-3.33
2023-02-06T06:55:41.145Z,-3.29
2023-02-06T07:00:43.491Z,-3.37
2023-02-06T07:05:45.989Z,-3.36
2023-02-06T07:10:48.300Z,-3.46
2023-02-06T07:15:50.696Z,-3.42
2023-02-06T07:20:52.990Z,-3.34
2023-02-06T07:25:56.489Z,-3.33
2023-02-06T07:30:58.913Z,-3.30
2023-02-06T07:36:03.870Z,-3.27
2023-02-06T07:41:06.512Z,-3.17
2023-02-06T07:46:08.886Z,-3.04
2023-02-06T07:51:11.190Z,-3.02
2023-02-06T07:56:13.593Z,-3.08
2023-02-06T08:01:15.978Z,-3.10
2023-02-06T08:06:18.352Z,-3.26
2023-02-06T08:11:20.706Z,-3.19
2023-02-06T08:16:24.325Z,-3.11
2023-02-06T08:21:26.766Z,-2.89
2023-02-06T08:26:29.138Z,-2.70
2023-02-06T08:31:31.738Z,-2.76
2023-02-06T08:36:34.171Z,-2.49
2023-02-06T08:41:37.441Z,-2.54
2023-02-06T08:46:39.832Z,-2.41
2023-02-06T08:51:42.231Z,-2.32
2023-02-06T08:56:44.812Z,-2.38
2023-02-06T09:01:49.140Z,-2.26
2023-02-06T09:06:52.185Z,-2.25
2023-02-06T09:11:55.485Z,-2.11
2023-02-06T09:16:58.346Z,-2.14
2023-02-06T09:22:00.746Z,-2.11
2023-02-06T09:27:03.074Z,-1.83
2023-02-06T09:32:05.366Z,-1.63
2023-02-06T09:37:07.734Z,-1.72
2023-02-06T09:42:11.172Z,-1.74
2023-02-06T09:47:13.524Z,-1.49
2023-02-06T09:52:15.882Z,-1.54
2023-02-06T09:57:18.189Z,-1.36
2023-02-06T10:02:20.560Z,-1.32
2023-02-06T10:07:23.049Z,-1.33
2023-02-06T10:12:25.436Z,-1.17
2023-02-06T10:17:27.815Z,-0.99
2023-02-06T10:22:30.236Z,-0.01
2023-02-06T10:27:32.607Z,0.68
2023-02-06T10:32:35.017Z,0.49
2023-02-06T10:37:37.354Z,0.26
2023-02-06T10:42:39.724Z,0.66
2023-02-06T10:47:42.064Z,0.78
2023-02-06T10:52:44.451Z,0.76
2023-02-06T10:57:47.013Z,0.69
2023-02-06T11:03:05.409Z,0.62
2023-02-06T11:08:09.398Z,0.92
2023-02-06T11:13:11.784Z,0.92
2023-02-06T11:18:14.170Z,0.63
2023-02-06T11:23:16.699Z,0.60
2023-02-06T11:28:19.239Z,1.04
2023-02-06T11:33:21.546Z,0.60
2023-02-06T11:38:24.161Z,0.75
2023-02-06T11:43:26.553Z,0.32
2023-02-06T11:48:29.152Z,0.08
2023-02-06T11:53:31.760Z,0.22
2023-02-06T11:58:34.125Z,0.24
2023-02-06T12:03:36.533Z,0.34
2023-02-06T12:08:38.919Z,0.49
2023-02-06T12:13:41.284Z,0.49
2023-02-06T12:18:44.390Z,0.13
2023-02-06T12:23:46.800Z,0.20
2023-02-06T12:28:49.193Z,-0.09
2023-02-06T12:33:54.714Z,-0.14
2023-02-06T12:38:57.384Z,-0.32
2023-02-06T12:43:59.746Z,-0.42
2023-02-06T12:49:02.079Z,-0.34
2023-02-06T12:54:04.416Z,-0.20
2023-02-06T12:59:06.750Z,-0.43
2023-02-06T13:04:09.144Z,-0.67
2023-02-06T13:09:11.430Z,-0.72
2023-02-06T13:14:13.796Z,-0.61
2023-02-06T13:19:16.069Z,-0.39
2023-02-06T13:24:18.316Z,-0.65
2023-02-06T13:29:20.604Z,-0.96
2023-02-06T13:34:22.903Z,-1.13
2023-02-06T13:39:25.223Z,-1.35
2023-02-06T13:44:27.517Z,-1.52
2023-02-06T13:49:29.804Z,-1.49
2023-02-06T13:54:32.087Z,-1.37
2023-02-06T13:59:34.433Z,-1.29
2023-02-06T14:04:36.818Z,-1.33
2023-02-06T14:09:45.011Z,-1.26
2023-02-06T14:14:47.359Z,-1.17
2023-02-06T14:19:49.699Z,-1.26
2023-02-06T14:24:52.012Z,-1.09
2023-02-06T14:29:54.420Z,-0.81
2023-02-06T14:34:56.750Z,-0.75
2023-02-06T14:40:04.487Z,-0.89
2023-02-06T14:45:07.087Z,-0.93
2023-02-06T14:50:09.437Z,-1.04
2023-02-06T14:55:11.851Z,-1.34
2023-02-06T15:00:14.215Z,-1.07
2023-02-06T15:05:16.597Z,-1.15
2023-02-06T15:10:19.047Z,-1.18
2023-02-06T15:15:21.490Z,-1.11
2023-02-06T15:20:23.880Z,-1.01
2023-02-06T15:25:26.419Z,-1.22
2023-02-06T15:30:29.002Z,-0.95
2023-02-06T15:35:31.514Z,-0.86
2023-02-06T15:40:34.034Z,-0.90
2023-02-06T15:45:36.548Z,-1.11
2023-02-06T15:50:39.048Z,-1.20
2023-02-06T15:55:41.619Z,-1.19
2023-02-06T16:00:44.021Z,-1.24
2023-02-06T16:05:46.329Z,-1.25
2023-02-06T16:10:48.658Z,-1.32
2023-02-06T16:15:50.993Z,-1.35
2023-02-06T16:20:53.340Z,-1.32
2023-02-06T16:25:55.761Z,-1.44
2023-02-06T16:30:58.182Z,-1.30
2023-02-06T16:36:00.565Z,-1.40
2023-02-06T16:41:02.951Z,-1.41
2023-02-06T16:46:05.398Z,-1.41
2023-02-06T16:51:10.280Z,-1.35
2023-02-06T16:56:12.724Z,-1.50
2023-02-06T17:01:15.184Z,-1.55
2023-02-06T17:06:17.572Z,-1.52
2023-02-06T17:11:19.971Z,-1.57
2023-02-06T17:16:22.376Z,-1.55
2023-02-06T17:21:24.781Z,-1.45
2023-02-06T17:26:27.247Z,-1.43
2023-02-06T17:31:29.779Z,-1.51
2023-02-06T17:36:33.326Z,-1.61
2023-02-06T17:41:36.340Z,-1.64
2023-02-06T17:46:38.733Z,-1.67
2023-02-06T17:51:41.208Z,-1.67
2023-02-06T17:56:43.694Z,-1.74
2023-02-06T18:01:46.111Z,-1.71
2023-02-06T18:06:48.828Z,-1.74
2023-02-06T18:11:51.163Z,-1.79
2023-02-06T18:16:53.528Z,-1.82
2023-02-06T18:21:55.843Z,-1.87
2023-02-06T18:26:58.186Z,-1.79
2023-02-06T18:32:00.508Z,-1.96
2023-02-06T18:37:02.928Z,-1.85
2023-02-06T18:42:22.995Z,-1.90
2023-02-06T18:47:25.371Z,-2.02
2023-02-06T18:52:28.068Z,-1.99
2023-02-06T18:57:30.488Z,-2.01
2023-02-06T19:02:32.834Z,-2.05
2023-02-06T19:07:35.312Z,-2.15
2023-02-06T19:12:37.600Z,-2.23
2023-02-06T19:17:42.213Z,-2.40
2023-02-06T19:22:44.602Z,-2.52
2023-02-06T19:27:46.993Z,-2.65
2023-02-06T19:32:51.420Z,-2.79
2023-02-06T19:37:53.809Z,-2.87
2023-02-06T19:42:56.148Z,-2.96
2023-02-06T19:47:58.526Z,-3.06
2023-02-06T19:53:00.968Z,-3.15
2023-02-06T19:58:03.435Z,-3.20
2023-02-06T20:03:05.968Z,-3.26
2023-02-06T20:08:08.438Z,-3.33
2023-02-06T20:13:10.818Z,-3.41
2023-02-06T20:18:13.370Z,-3.40
2023-02-06T20:23:16.000Z,-3.44
2023-02-06T20:28:18.495Z,-3.46
2023-02-06T20:33:20.840Z,-3.52
2023-02-06T20:38:23.254Z,-3.56
2023-02-06T20:43:26.429Z,-3.61
2023-02-06T20:48:29.368Z,-3.68
2023-02-06T20:53:31.872Z,-3.79
2023-02-06T20:58:34.276Z,-3.79
2023-02-06T21:03:56.930Z,-3.81
2023-02-06T21:09:19.585Z,-3.81
2023-02-06T21:14:43.001Z,-3.85
2023-02-06T21:19:45.367Z,-3.90
2023-02-06T21:24:47.707Z,-3.92
2023-02-06T21:29:50.094Z,-4.00
2023-02-06T21:34:52.523Z,-4.07
2023-02-06T21:39:55.114Z,-4.14
2023-02-06T21:44:57.402Z,-4.20
2023-02-06T21:49:59.849Z,-4.28
2023-02-06T21:55:02.268Z,-4.33
2023-02-06T22:00:04.683Z,-4.34
2023-02-06T22:05:07.280Z,-4.44
2023-02-06T22:10:09.608Z,-4.46
2023-02-06T22:15:11.915Z,-4.47
2023-02-06T22:20:16.285Z,-4.49
2023-02-06T22:25:18.752Z,-4.48
2023-02-06T22:30:21.166Z,-4.53
2023-02-06T22:35:23.649Z,-4.57
2023-02-06T22:40:25.974Z,-4.60
2023-02-06T22:45:28.609Z,-4.60
2023-02-06T22:50:30.931Z,-4.60
2023-02-06T22:55:47.151Z,-4.64
2023-02-06T23:00:49.583Z,-4.66
2023-02-06T23:05:52.004Z,-4.76
2023-02-06T23:10:54.476Z,-4.83
2023-02-06T23:15:56.867Z,-4.92
2023-02-06T23:20:59.324Z,-5.02
2023-02-06T23:26:01.731Z,-5.02
2023-02-06T23:31:04.316Z,-5.05
2023-02-06T23:36:06.692Z,-5.11
2023-02-06T23:41:09.038Z,-5.16
2023-02-06T23:46:12.369Z,-5.19
2023-02-06T23:51:14.908Z,-5.18
2023-02-06T23:56:17.278Z,-5.17
